createdAt,value
2024-01-15T00:00:01.212Z,7.97
2024-01-15T00:02:34.670Z,8.13
2024-01-15T00:05:03.595Z,7.88
2024-01-15T00:07:31.951Z,8.25
2024-01-15T00:10:02.499Z,7.25
2024-01-15T00:12:34.810Z,7.75
2024-01-15T00:15:03.410Z,7.30
2024-01-15T00:17:31.625Z,7.60
2024-01-15T00:20:00.330Z,7.20
2024-01-15T00:22:28.994Z,7.65
2024-01-15T00:24:57.629Z,6.85
2024-01-15T00:27:27.314Z,6.95
2024-01-15T00:29:56.326Z,6.68
2024-01-15T00:32:24.583Z,6.45
2024-01-15T00:34:53.271Z,6.97
2024-01-15T00:37:21.598Z,6.28
2024-01-15T00:39:50.305Z,6.97
2024-01-15T00:42:18.971Z,6.70
2024-01-15T00:44:48.846Z,7.18
2024-01-15T00:47:17.248Z,5.97
2024-01-15T00:49:46.382Z,7.10
2024-01-15T00:52:14.643Z,6.68
2024-01-15T00:54:43.461Z,6.00
2024-01-15T00:57:11.889Z,6.15
2024-01-15T00:59:41.186Z,6.35
2024-01-15T01:02:11.086Z,5.75
2024-01-15T01:04:39.790Z,5.53
2024-01-15T01:07:08.405Z,5.47
2024-01-15T01:09:37.333Z,5.85
2024-01-15T01:12:07.327Z,5.88
2024-01-15T01:14:36.267Z,6.70
2024-01-15T01:17:04.693Z,5.35
2024-01-15T01:19:34.766Z,5.55
2024-01-15T01:22:03.130Z,5.32
2024-01-15T01:24:31.650Z,6.15
2024-01-15T01:27:00.081Z,5.07
2024-01-15T01:29:28.995Z,5.57
2024-01-15T01:31:57.840Z,5.68
2024-01-15T01:34:26.490Z,5.75
2024-01-15T01:36:56.249Z,5.82
2024-01-15T01:39:24.700Z,5.45
2024-01-15T01:41:53.186Z,6.18
2024-01-15T01:44:21.772Z,5.20
2024-01-15T01:46:50.178Z,5.10
2024-01-15T01:49:19.133Z,5.63
2024-01-15T01:51:47.666Z,4.93
2024-01-15T01:54:17.749Z,5.03
2024-01-15T01:56:46.189Z,4.40
2024-01-15T01:59:15.115Z,4.85
2024-01-15T02:01:44.164Z,4.53
2024-01-15T02:04:14.071Z,5.50
2024-01-15T02:06:43.178Z,4.63
2024-01-15T02:09:11.962Z,4.88
2024-01-15T02:11:41.907Z,4.38
2024-01-15T02:14:11.586Z,4.80
2024-01-15T02:16:39.819Z,4.75
2024-01-15T02:19:09.066Z,4.40
2024-01-15T02:21:37.406Z,4.72
2024-01-15T02:24:07.937Z,4.75
2024-01-15T02:26:38.303Z,4.32
2024-01-15T02:29:07.373Z,4.60
2024-01-15T02:31:35.735Z,4.13
2024-01-15T02:34:04.406Z,3.95
2024-01-15T02:36:32.985Z,4.60
2024-01-15T02:39:01.659Z,4.57
2024-01-15T02:41:31.445Z,3.88
2024-01-15T02:44:00.180Z,4.05
2024-01-15T02:46:28.602Z,4.03
2024-01-15T02:48:57.353Z,3.80
2024-01-15T02:51:25.986Z,3.78
2024-01-15T02:53:54.670Z,3.67
2024-01-15T02:56:22.965Z,3.63
2024-01-15T02:58:52.730Z,3.22
2024-01-15T03:01:21.612Z,3.78
2024-01-15T03:03:50.339Z,3.50
2024-01-15T03:06:18.769Z,3.75
2024-01-15T03:08:47.294Z,3.30
2024-01-15T03:11:15.605Z,3.30
2024-01-15T03:13:44.688Z,3.45
2024-01-15T03:16:14.399Z,3.10
2024-01-15T03:18:43.229Z,3.50
2024-01-15T03:21:11.439Z,3.22
2024-01-15T03:23:40.254Z,3.50
2024-01-15T03:26:08.408Z,3.13
2024-01-15T03:28:37.082Z,3.10
2024-01-15T03:31:05.759Z,2.95
2024-01-15T03:33:35.814Z,3.35
2024-01-15T03:36:04.194Z,3.63
2024-01-15T03:38:32.970Z,3.17
2024-01-15T03:41:01.146Z,3.20
2024-01-15T03:43:30.095Z,3.38
2024-01-15T03:45:58.361Z,3.63
2024-01-15T03:48:27.384Z,3.33
2024-01-15T03:50:57.038Z,3.28
2024-01-15T03:53:25.515Z,3.70
2024-01-15T03:55:54.121Z,3.60
2024-01-15T03:58:22.554Z,3.53
2024-01-15T04:00:50.812Z,3.42
2024-01-15T04:03:19.426Z,3.80
2024-01-15T04:05:48.055Z,3.45
2024-01-15T04:08:18.038Z,3.13
2024-01-15T04:10:46.696Z,3.45
2024-01-15T04:13:15.159Z,3.45
2024-01-15T04:15:43.603Z,3.83
2024-01-15T04:18:12.237Z,4.10
2024-01-15T04:20:40.738Z,4.20
2024-01-15T04:23:09.216Z,3.47
2024-01-15T04:25:38.953Z,3.60
2024-01-15T04:28:07.746Z,4.25
2024-01-15T04:30:36.179Z,4.28
2024-01-15T04:33:05.118Z,3.97
2024-01-15T04:35:33.616Z,3.38
2024-01-15T04:38:02.084Z,4.18
2024-01-15T04:40:30.378Z,4.10
2024-01-15T04:43:00.302Z,4.28
2024-01-15T04:45:30.148Z,4.15
2024-01-15T04:47:59.199Z,4.20
2024-01-15T04:50:27.618Z,3.92
2024-01-15T04:52:56.188Z,4.20
2024-01-15T04:55:24.572Z,4.32
2024-01-15T04:57:53.138Z,4.40
2024-01-15T05:00:23.159Z,4.45
2024-01-15T05:02:51.835Z,4.50
2024-01-15T05:05:20.337Z,4.25
2024-01-15T05:07:49.336Z,4.43
2024-01-15T05:10:17.636Z,4.50
2024-01-15T05:12:46.496Z,4.25
2024-01-15T05:15:15.002Z,4.35
2024-01-15T05:17:45.017Z,4.93
2024-01-15T05:20:13.864Z,4.90
2024-01-15T05:22:42.485Z,4.75
2024-01-15T05:25:10.922Z,4.65
2024-01-15T05:27:39.404Z,4.82
2024-01-15T05:30:08.695Z,4.72
2024-01-15T05:32:37.387Z,4.45
2024-01-15T05:35:07.753Z,4.47
2024-01-15T05:37:36.646Z,4.85
2024-01-15T05:40:06.660Z,5.22
2024-01-15T05:42:35.267Z,5.03
2024-01-15T05:45:05.797Z,5.57
2024-01-15T05:47:34.483Z,5.15
2024-01-15T05:50:03.673Z,5.55
2024-01-15T05:52:33.793Z,5.53
2024-01-15T05:55:02.202Z,5.07
2024-01-15T05:57:30.754Z,5.05
2024-01-15T05:59:59.230Z,4.80
2024-01-15T06:02:27.876Z,5.38
2024-01-15T06:04:56.767Z,4.35
2024-01-15T06:07:25.588Z,7.38
2024-01-15T06:09:55.453Z,6.57
2024-01-15T06:12:25.010Z,6.15
2024-01-15T06:14:53.676Z,5.40
2024-01-15T06:17:22.466Z,5.80
2024-01-15T06:19:51.067Z,5.85
2024-01-15T06:22:20.357Z,6.13
2024-01-15T06:24:48.833Z,5.78
2024-01-15T06:27:18.967Z,5.60
2024-01-15T06:29:50.692Z,5.60
2024-01-15T06:32:19.847Z,5.13
2024-01-15T06:34:48.190Z,5.32
2024-01-15T06:37:16.893Z,5.00
2024-01-15T06:39:45.322Z,6.10
2024-01-15T06:42:14.200Z,6.18
2024-01-15T06:44:43.738Z,5.45
2024-01-15T06:47:12.183Z,6.25
2024-01-15T06:49:40.524Z,6.47
2024-01-15T06:52:09.378Z,7.20
2024-01-15T06:54:37.647Z,6.50
2024-01-15T06:57:08.177Z,6.47
2024-01-15T06:59:36.864Z,7.88
2024-01-15T07:02:07.239Z,8.45
2024-01-15T07:04:39.201Z,7.00
2024-01-15T07:07:09.103Z,7.97
2024-01-15T07:09:37.656Z,7.63
2024-01-15T07:12:06.671Z,7.63
2024-01-15T07:14:36.704Z,8.13
2024-01-15T07:17:07.755Z,7.00
2024-01-15T07:19:36.107Z,6.38
2024-01-15T07:22:05.661Z,6.65
2024-01-15T07:24:35.363Z,6.72
2024-01-15T07:27:06.050Z,7.30
2024-01-15T07:29:37.245Z,7.25
2024-01-15T07:32:09.016Z,6.65
2024-01-15T07:34:37.398Z,6.88
2024-01-15T07:37:06.159Z,7.03
2024-01-15T07:39:34.421Z,5.75
2024-01-15T07:42:03.692Z,6.38
2024-01-15T07:44:31.949Z,6.55
2024-01-15T07:47:00.551Z,6.40
2024-01-15T07:49:31.023Z,7.60
2024-01-15T07:51:59.750Z,7.00
2024-01-15T07:54:28.204Z,8.93
2024-01-15T07:56:57.464Z,7.53
2024-01-15T07:59:26.093Z,7.50
2024-01-15T08:01:55.277Z,14.93
2024-01-15T08:04:24.239Z,6.93
2024-01-15T08:06:54.450Z,7.00
2024-01-15T08:09:23.212Z,7.43
2024-01-15T08:11:52.083Z,7.43
2024-01-15T08:14:20.585Z,7.18
2024-01-15T08:16:49.172Z,8.18
2024-01-15T08:19:17.759Z,8.30
2024-01-15T08:21:46.580Z,8.93
2024-01-15T08:24:18.148Z,8.63
2024-01-15T08:26:47.252Z,7.75
2024-01-15T08:29:15.711Z,8.90
2024-01-15T08:31:44.410Z,9.02
2024-01-15T08:34:12.782Z,8.80
2024-01-15T08:36:42.005Z,9.48
2024-01-15T08:39:10.710Z,11.98
2024-01-15T08:41:40.628Z,11.15
2024-01-15T08:44:09.130Z,9.65
2024-01-15T08:46:37.918Z,9.45
2024-01-15T08:49:07.406Z,9.50
2024-01-15T08:51:36.155Z,8.60
2024-01-15T08:54:04.494Z,9.30
2024-01-15T08:56:33.225Z,14.85
2024-01-15T08:59:02.729Z,9.65
2024-01-15T09:01:32.232Z,10.27
2024-01-15T09:04:00.972Z,11.75
2024-01-15T09:06:33.125Z,11.13
2024-01-15T09:09:02.596Z,10.88
2024-01-15T09:11:31.453Z,9.20
2024-01-15T09:14:00.193Z,9.73
2024-01-15T09:16:30.422Z,9.65
2024-01-15T09:18:59.237Z,8.98
2024-01-15T09:21:28.349Z,9.20
2024-01-15T09:23:56.556Z,8.52
2024-01-15T09:26:25.324Z,10.80
2024-01-15T09:28:54.511Z,8.38
2024-01-15T09:31:23.241Z,8.57
2024-01-15T09:33:57.373Z,9.73
2024-01-15T09:36:26.893Z,8.85
2024-01-15T09:38:55.042Z,9.13
2024-01-15T09:41:23.656Z,8.38
2024-01-15T09:43:53.302Z,9.73
2024-01-15T09:46:21.818Z,9.25
2024-01-15T09:48:50.698Z,9.02
2024-01-15T09:51:20.586Z,8.25
2024-01-15T09:53:49.454Z,9.35
2024-01-15T09:56:18.304Z,8.98
2024-01-15T09:58:46.734Z,10.32
2024-01-15T10:01:16.659Z,11.38
2024-01-15T10:03:45.259Z,10.52
2024-01-15T10:06:14.140Z,10.77
2024-01-15T10:08:43.894Z,10.07
2024-01-15T10:11:12.487Z,10.13
2024-01-15T10:13:42.104Z,10.32
2024-01-15T10:16:12.549Z,9.43
2024-01-15T10:18:41.307Z,10.38
2024-01-15T10:21:10.373Z,10.75
2024-01-15T10:23:38.593Z,11.93
2024-01-15T10:26:08.622Z,11.38
2024-01-15T10:28:36.829Z,10.93
2024-01-15T10:31:06.402Z,11.68
2024-01-15T10:33:35.124Z,10.98
2024-01-15T10:36:04.004Z,10.43
2024-01-15T10:38:32.517Z,11.45
2024-01-15T10:41:01.086Z,10.65
2024-01-15T10:43:30.892Z,11.00
2024-01-15T10:45:59.700Z,10.52
2024-01-15T10:48:30.139Z,10.52
2024-01-15T10:50:59.579Z,10.43
2024-01-15T10:53:29.294Z,9.80
2024-01-15T10:55:58.900Z,10.57
2024-01-15T10:58:30.938Z,9.73
2024-01-15T11:00:59.725Z,9.30
2024-01-15T11:03:28.502Z,9.07
2024-01-15T11:05:56.111Z,9.50
2024-01-15T11:08:24.484Z,9.35
2024-01-15T11:10:53.758Z,9.90
2024-01-15T11:13:26.300Z,9.23
2024-01-15T11:16:02.754Z,9.15
2024-01-15T11:18:32.167Z,9.68
2024-01-15T11:21:24.514Z,10.18
2024-01-15T11:23:55.057Z,11.57
2024-01-15T11:26:33.936Z,10.75
2024-01-15T11:29:04.327Z,9.75
2024-01-15T11:32:02.046Z,10.60
2024-01-15T11:34:53.972Z,8.70
2024-01-15T11:37:24.998Z,8.95
2024-01-15T11:39:56.983Z,8.85
2024-01-15T11:42:29.089Z,9.75
2024-01-15T11:44:57.526Z,9.77
2024-01-15T11:48:05.863Z,10.25
2024-01-15T11:50:34.735Z,10.57
2024-01-15T11:53:07.333Z,9.85
2024-01-15T11:55:37.593Z,9.45
2024-01-15T11:58:11.254Z,10.18
2024-01-15T12:00:42.991Z,10.15
2024-01-15T12:03:13.962Z,10.10
2024-01-15T12:05:43.382Z,11.75
2024-01-15T12:08:13.113Z,10.93
2024-01-15T12:10:43.258Z,10.95
2024-01-15T12:13:14.305Z,10.70
2024-01-15T12:15:44.470Z,11.18
2024-01-15T12:18:16.664Z,12.60
2024-01-15T12:20:48.827Z,11.23
2024-01-15T12:23:19.316Z,12.85
2024-01-15T12:25:48.578Z,10.93
2024-01-15T12:28:18.105Z,11.07
2024-01-15T12:30:51.033Z,11.25
2024-01-15T12:33:22.754Z,10.80
2024-01-15T12:35:51.240Z,14.88
2024-01-15T12:38:22.270Z,11.07
2024-01-15T12:40:51.143Z,10.35
2024-01-15T12:43:19.811Z,9.98
2024-01-15T12:45:48.363Z,10.63
2024-01-15T12:48:19.385Z,10.25
2024-01-15T12:50:49.813Z,9.57
2024-01-15T12:53:19.113Z,9.83
2024-01-15T12:55:47.642Z,11.13
2024-01-15T12:58:17.995Z,10.68
2024-01-15T13:00:48.386Z,9.57
2024-01-15T13:03:17.285Z,8.57
2024-01-15T13:05:46.592Z,8.98
2024-01-15T13:08:16.764Z,10.60
2024-01-15T13:10:45.475Z,10.38
2024-01-15T13:13:14.251Z,11.30
2024-01-15T13:15:43.332Z,9.95
2024-01-15T13:18:12.055Z,11.07
2024-01-15T13:20:40.715Z,10.50
2024-01-15T13:23:11.138Z,9.77
2024-01-15T13:25:41.033Z,10.05
2024-01-15T13:28:10.512Z,11.50
2024-01-15T13:30:39.838Z,9.70
2024-01-15T13:33:09.841Z,10.88
2024-01-15T13:35:38.335Z,9.57
2024-01-15T13:38:07.347Z,10.02
2024-01-15T13:40:35.542Z,9.95
2024-01-15T13:43:09.612Z,9.88
2024-01-15T13:45:38.665Z,12.43
2024-01-15T13:48:09.490Z,9.98
2024-01-15T13:50:38.194Z,9.63
2024-01-15T13:53:06.724Z,9.45
2024-01-15T13:55:35.009Z,9.82
2024-01-15T13:58:07.011Z,10.32
2024-01-15T14:00:35.617Z,9.73
2024-01-15T14:03:04.818Z,9.15
2024-01-15T14:05:33.928Z,8.23
2024-01-15T14:08:02.683Z,8.77
2024-01-15T14:10:30.838Z,9.07
2024-01-15T14:12:59.363Z,10.60
2024-01-15T14:15:29.059Z,8.73
2024-01-15T14:17:59.212Z,8.20
2024-01-15T14:20:27.760Z,8.07
2024-01-15T14:22:56.756Z,8.02
2024-01-15T14:25:25.482Z,8.18
2024-01-15T14:27:54.073Z,9.15
2024-01-15T14:30:22.325Z,7.75
2024-01-15T14:32:52.352Z,7.70
2024-01-15T14:35:20.861Z,8.77
2024-01-15T14:37:49.599Z,7.68
2024-01-15T14:40:18.358Z,8.00
2024-01-15T14:42:47.256Z,7.68
2024-01-15T14:45:15.872Z,7.93
2024-01-15T14:47:45.680Z,9.93
2024-01-15T14:50:15.968Z,7.55
2024-01-15T14:52:46.148Z,9.30
2024-01-15T14:55:15.391Z,9.73
2024-01-15T14:57:44.853Z,8.02
2024-01-15T15:00:17.061Z,9.20
2024-01-15T15:02:46.798Z,9.70
2024-01-15T15:05:18.338Z,8.70
2024-01-15T15:07:49.205Z,7.90
2024-01-15T15:10:17.960Z,9.10
2024-01-15T15:12:46.655Z,12.15
2024-01-15T15:15:21.493Z,11.80
2024-01-15T15:17:50.469Z,9.20
2024-01-15T15:20:21.778Z,8.70
2024-01-15T15:22:50.459Z,12.13
2024-01-15T15:25:19.364Z,10.48
2024-01-15T15:27:48.542Z,8.93
2024-01-15T15:30:17.623Z,8.38
2024-01-15T15:32:46.260Z,6.93
2024-01-15T15:35:15.299Z,7.18
2024-01-15T15:37:45.642Z,7.28
2024-01-15T15:40:14.342Z,7.40
2024-01-15T15:42:43.399Z,7.53
2024-01-15T15:45:12.269Z,7.00
2024-01-15T15:47:41.031Z,9.18
2024-01-15T15:50:10.485Z,8.23
2024-01-15T15:52:39.533Z,9.57
2024-01-15T15:55:10.408Z,10.23
2024-01-15T16:00:09.257Z,8.25
2024-01-15T16:02:38.228Z,8.50
2024-01-15T16:05:11.301Z,8.98
2024-01-15T16:07:40.169Z,8.10
2024-01-15T16:10:11.191Z,7.72
2024-01-15T16:15:20.068Z,7.72
2024-01-15T16:23:17.178Z,7.63
2024-01-15T16:23:31.546Z,7.88
2024-01-15T16:24:04.637Z,7.60
2024-01-15T16:26:18.102Z,7.20
2024-01-15T16:28:47.071Z,8.15
2024-01-15T16:31:17.568Z,10.00
2024-01-15T16:33:50.237Z,9.30
2024-01-15T16:36:23.074Z,9.65
2024-01-15T16:38:52.329Z,14.97
2024-01-15T16:41:22.225Z,11.30
2024-01-15T16:43:50.862Z,8.15
2024-01-15T16:46:19.588Z,7.68
2024-01-15T16:48:48.269Z,7.72
2024-01-15T16:51:17.038Z,8.25
2024-01-15T16:53:45.768Z,9.30
2024-01-15T16:56:14.081Z,8.30
2024-01-15T16:58:44.046Z,7.45
2024-01-15T17:01:13.024Z,8.52
2024-01-15T17:03:41.728Z,8.60
2024-01-15T17:06:09.983Z,8.73
2024-01-15T17:08:38.772Z,7.95
2024-01-15T17:11:07.215Z,9.32
2024-01-15T17:13:36.038Z,8.55
2024-01-15T17:16:07.239Z,9.55
2024-01-15T17:18:35.944Z,8.48
2024-01-15T17:21:04.199Z,8.93
2024-01-15T17:23:33.160Z,9.10
2024-01-15T17:26:01.475Z,8.95
2024-01-15T17:28:30.215Z,8.55
2024-01-15T17:31:00.044Z,7.60
2024-01-15T17:33:30.239Z,8.00
2024-01-15T17:36:00.396Z,7.22
2024-01-15T17:38:30.207Z,7.03
2024-01-15T17:40:59.151Z,6.82
2024-01-15T17:43:28.358Z,8.57
2024-01-15T17:46:01.844Z,7.70
2024-01-15T17:48:32.569Z,8.93
2024-01-15T17:51:01.753Z,7.85
2024-01-15T17:53:30.358Z,8.20
2024-01-15T17:55:58.994Z,8.38
2024-01-15T17:58:31.998Z,8.70
2024-01-15T18:01:03.195Z,8.07
2024-01-15T18:03:33.347Z,8.57
2024-01-15T18:06:02.575Z,8.27
2024-01-15T18:08:31.160Z,7.47
2024-01-15T18:10:59.677Z,8.43
2024-01-15T18:13:28.289Z,9.32
2024-01-15T18:15:58.764Z,8.30
2024-01-15T18:18:27.703Z,7.73
2024-01-15T18:20:57.724Z,8.60
2024-01-15T18:23:26.599Z,10.15
2024-01-15T18:25:56.850Z,8.48
2024-01-15T18:28:25.738Z,8.23
2024-01-15T18:30:54.587Z,9.50
2024-01-15T18:33:24.448Z,9.93
2024-01-15T18:35:53.503Z,8.48
2024-01-15T18:38:23.666Z,8.02
2024-01-15T18:40:53.027Z,9.02
2024-01-15T18:43:23.080Z,8.20
2024-01-15T18:45:51.672Z,8.90
2024-01-15T18:48:20.594Z,7.80
2024-01-15T18:50:49.475Z,9.07
2024-01-15T18:53:18.205Z,7.82
2024-01-15T18:55:48.096Z,8.27
2024-01-15T18:58:18.135Z,7.72
2024-01-15T19:00:46.949Z,6.68
2024-01-15T19:03:15.494Z,7.20
2024-01-15T19:05:44.657Z,7.47
2024-01-15T19:08:13.387Z,7.43
2024-01-15T19:10:41.881Z,7.50
2024-01-15T19:13:13.399Z,6.65
2024-01-15T19:15:41.848Z,7.80
2024-01-15T19:18:11.312Z,7.15
2024-01-15T19:20:39.984Z,8.05
2024-01-15T19:23:09.657Z,8.65
2024-01-15T19:25:38.409Z,7.03
2024-01-15T19:28:08.437Z,6.97
2024-01-15T19:30:39.434Z,7.97
2024-01-15T19:33:12.512Z,6.55
2024-01-15T19:35:41.236Z,7.32
2024-01-15T19:38:10.465Z,8.40
2024-01-15T19:40:39.222Z,7.40
2024-01-15T19:43:08.399Z,6.97
2024-01-15T19:45:39.441Z,6.07
2024-01-15T19:50:37.418Z,7.05
2024-01-15T19:53:06.592Z,6.45
2024-01-15T19:55:35.385Z,7.18
2024-01-15T19:58:04.414Z,7.20
2024-01-15T20:00:33.211Z,8.43
2024-01-15T20:03:04.047Z,7.47
2024-01-15T20:05:33.130Z,6.80
2024-01-15T20:08:05.244Z,7.53
2024-01-15T20:10:35.253Z,7.38
2024-01-15T20:13:03.768Z,8.13
2024-01-15T20:15:32.351Z,9.05
2024-01-15T20:18:00.988Z,7.88
2024-01-15T20:20:31.219Z,7.38
2024-01-15T20:23:01.881Z,8.07
2024-01-15T20:25:30.722Z,8.27
2024-01-15T20:27:59.532Z,7.10
2024-01-15T20:30:29.357Z,7.88
2024-01-15T20:32:58.295Z,7.00
2024-01-15T20:35:26.653Z,7.40
2024-01-15T20:37:56.877Z,7.38
2024-01-15T20:40:25.196Z,7.22
2024-01-15T20:42:53.717Z,8.10
2024-01-15T20:45:23.596Z,7.57
2024-01-15T20:47:53.444Z,7.50
2024-01-15T20:50:22.060Z,7.57
2024-01-15T20:52:50.791Z,7.50
2024-01-15T20:55:21.045Z,6.80
2024-01-15T20:57:49.593Z,7.90
2024-01-15T21:00:22.264Z,6.78
2024-01-15T21:02:51.495Z,9.55
2024-01-15T21:05:20.618Z,8.25
2024-01-15T21:07:51.857Z,7.13
2024-01-15T21:10:22.849Z,6.50
2024-01-15T21:12:51.440Z,6.97
2024-01-15T21:15:19.925Z,7.25
2024-01-15T21:17:50.523Z,7.03
2024-01-15T21:20:19.340Z,7.88
2024-01-15T21:22:47.922Z,6.90
2024-01-15T21:25:16.377Z,6.47
2024-01-15T21:27:47.384Z,7.03
2024-01-15T21:30:17.093Z,7.72
2024-01-15T21:32:45.817Z,7.50
2024-01-15T21:35:14.223Z,9.15
2024-01-15T21:37:44.339Z,8.25
2024-01-15T21:40:13.596Z,7.80
2024-01-15T21:42:42.532Z,12.65
2024-01-15T21:45:12.290Z,19.05
2024-01-15T21:47:42.452Z,15.05
2024-01-15T21:50:11.284Z,8.60
2024-01-15T21:52:39.907Z,9.48
2024-01-15T21:55:11.017Z,12.88
2024-01-15T21:57:39.765Z,13.65
2024-01-15T22:00:09.373Z,12.38
2024-01-15T22:02:45.162Z,12.35
2024-01-15T22:05:14.529Z,12.05
2024-01-15T22:07:44.704Z,9.23
2024-01-15T22:10:14.201Z,8.77
2024-01-15T22:12:43.084Z,7.93
2024-01-15T22:15:14.334Z,8.23
2024-01-15T22:17:44.578Z,8.13
2024-01-15T22:20:13.806Z,7.43
2024-01-15T22:22:42.456Z,8.05
2024-01-15T22:25:11.014Z,7.38
2024-01-15T22:27:39.508Z,7.22
2024-01-15T22:30:10.020Z,8.43
2024-01-15T22:32:39.121Z,8.40
2024-01-15T22:35:12.013Z,7.75
2024-01-15T22:37:44.130Z,7.28
2024-01-15T22:40:15.335Z,7.45
2024-01-15T22:42:43.738Z,8.10
2024-01-15T22:45:16.614Z,6.60
2024-01-15T22:47:46.534Z,7.35
2024-01-15T22:50:16.600Z,7.53
2024-01-15T22:52:44.147Z,8.37
2024-01-15T22:55:14.101Z,8.93
2024-01-15T22:57:43.401Z,7.28
2024-01-15T23:00:19.671Z,6.10
2024-01-15T23:02:49.148Z,8.50
2024-01-15T23:05:19.125Z,7.00
2024-01-15T23:07:47.815Z,6.03
2024-01-15T23:10:16.367Z,6.28
2024-01-15T23:12:44.977Z,7.30
2024-01-15T23:15:14.596Z,6.05
2024-01-15T23:17:45.216Z,5.60
2024-01-15T23:20:14.201Z,6.38
2024-01-15T23:22:44.084Z,5.70
2024-01-15T23:25:12.567Z,6.50
2024-01-15T23:27:41.146Z,6.53
2024-01-15T23:30:10.612Z,6.30
2024-01-15T23:32:39.545Z,6.85
2024-01-15T23:35:09.143Z,7.40
2024-01-15T23:37:39.255Z,8.25
2024-01-15T23:40:10.269Z,9.27
2024-01-15T23:45:08.663Z,6.78
2024-01-15T23:47:37.904Z,7.45
2024-01-15T23:50:06.763Z,9.32
2024-01-15T23:52:35.342Z,8.43
2024-01-15T23:55:03.595Z,7.93
2024-01-15T23:57:33.563Z,8.77
